createdAt,value
2022-11-08T00:00:00.488Z,11.57
2022-11-08T00:02:27.683Z,12.00
2022-11-08T00:04:54.800Z,12.20
2022-11-08T00:07:40.656Z,12.20
2022-11-08T00:10:26.998Z,12.80
2022-11-08T00:13:12.517Z,12.53
2022-11-08T00:15:39.498Z,12.90
2022-11-08T00:18:07.554Z,12.93
2022-11-08T00:20:34.889Z,12.77
2022-11-08T00:23:02.003Z,13.00
2022-11-08T00:25:28.993Z,11.87
2022-11-08T00:27:55.932Z,11.60
2022-11-08T00:30:22.870Z,11.73
2022-11-08T00:32:49.812Z,12.90
2022-11-08T00:35:16.922Z,12.00
2022-11-08T00:37:43.832Z,11.83
2022-11-08T00:40:12.109Z,9.97
2022-11-08T00:42:39.130Z,11.13
2022-11-08T00:45:06.818Z,11.43
2022-11-08T00:47:33.825Z,12.03
2022-11-08T00:50:00.769Z,13.10
2022-11-08T00:52:27.753Z,12.53
2022-11-08T00:54:54.658Z,11.77
2022-11-08T00:57:27.532Z,12.07
2022-11-08T01:00:09.859Z,12.40
2022-11-08T01:02:36.883Z,11.43
2022-11-08T01:05:04.046Z,11.90
2022-11-08T01:07:30.997Z,12.50
2022-11-08T01:09:57.951Z,11.87
2022-11-08T01:12:24.942Z,11.90
2022-11-08T01:14:51.895Z,12.13
2022-11-08T01:17:18.842Z,11.87
2022-11-08T01:19:45.819Z,11.57
2022-11-08T01:22:12.799Z,11.30
2022-11-08T01:24:39.816Z,11.67
2022-11-08T01:27:06.792Z,10.97
2022-11-08T01:29:33.863Z,10.93
2022-11-08T01:32:00.817Z,11.30
2022-11-08T01:34:27.747Z,11.23
2022-11-08T01:36:54.705Z,10.57
2022-11-08T01:39:21.618Z,11.13
2022-11-08T01:41:48.660Z,11.27
2022-11-08T01:44:17.637Z,9.87
2022-11-08T01:46:47.908Z,11.90
2022-11-08T01:49:43.547Z,10.57
2022-11-08T01:52:19.022Z,9.87
2022-11-08T01:55:21.424Z,10.27
2022-11-08T01:57:50.393Z,11.50
2022-11-08T02:00:17.964Z,11.00
2022-11-08T02:02:51.685Z,11.10
2022-11-08T02:05:26.140Z,10.50
2022-11-08T02:07:59.174Z,10.93
2022-11-08T02:10:37.365Z,10.73
2022-11-08T02:13:19.473Z,12.53
2022-11-08T02:15:46.850Z,11.90
2022-11-08T02:18:16.681Z,12.00
2022-11-08T02:21:42.879Z,10.97
2022-11-08T02:24:13.101Z,11.67
2022-11-08T02:26:40.774Z,11.80
2022-11-08T02:29:43.059Z,11.13
2022-11-08T02:32:11.326Z,10.50
2022-11-08T02:34:47.666Z,10.57
2022-11-08T02:37:18.536Z,10.53
2022-11-08T02:39:46.419Z,11.10
2022-11-08T02:42:15.983Z,11.27
2022-11-08T02:44:42.941Z,9.63
2022-11-08T02:47:09.886Z,10.57
2022-11-08T02:49:37.754Z,9.83
2022-11-08T02:52:05.397Z,11.30
2022-11-08T02:54:32.511Z,11.37
2022-11-08T02:56:59.460Z,9.97
2022-11-08T02:59:26.433Z,10.27
2022-11-08T03:01:53.469Z,11.00
2022-11-08T03:04:20.515Z,10.23
2022-11-08T03:06:47.424Z,9.20
2022-11-08T03:09:14.394Z,10.80
2022-11-08T03:11:41.405Z,10.70
2022-11-08T03:14:08.415Z,10.10
2022-11-08T03:16:35.331Z,10.60
2022-11-08T03:19:02.283Z,9.70
2022-11-08T03:21:29.217Z,10.93
2022-11-08T03:23:56.391Z,10.43
2022-11-08T03:26:23.341Z,10.23
2022-11-08T03:28:50.221Z,10.60
2022-11-08T03:31:17.216Z,10.50
2022-11-08T03:33:44.161Z,11.10
2022-11-08T03:36:11.154Z,11.00
2022-11-08T03:38:38.050Z,10.23
2022-11-08T03:41:05.123Z,10.93
2022-11-08T03:43:32.037Z,10.90
2022-11-08T03:45:59.044Z,10.43
2022-11-08T03:48:25.974Z,9.80
2022-11-08T03:50:53.010Z,10.13
2022-11-08T03:53:19.958Z,9.43
2022-11-08T03:55:46.909Z,10.87
2022-11-08T03:58:13.962Z,10.53
2022-11-08T04:00:41.118Z,9.83
2022-11-08T04:03:09.082Z,10.87
2022-11-08T04:05:36.012Z,11.03
2022-11-08T04:08:05.927Z,10.97
2022-11-08T04:10:33.000Z,10.43
2022-11-08T04:13:19.759Z,10.80
2022-11-08T04:15:53.188Z,11.37
2022-11-08T04:18:38.670Z,11.53
2022-11-08T04:21:21.993Z,10.70
2022-11-08T04:23:52.998Z,10.60
2022-11-08T04:26:21.681Z,10.93
2022-11-08T04:28:48.671Z,11.27
2022-11-08T04:31:18.744Z,11.17
2022-11-08T04:33:46.457Z,11.83
2022-11-08T04:36:16.792Z,11.57
2022-11-08T04:38:47.360Z,11.40
2022-11-08T04:41:16.197Z,11.57
2022-11-08T04:43:43.376Z,11.23
2022-11-08T04:46:14.081Z,11.47
2022-11-08T04:48:42.239Z,11.10
2022-11-08T04:51:17.801Z,11.87
2022-11-08T04:53:45.421Z,11.40
2022-11-08T04:56:19.704Z,12.57
2022-11-08T04:58:53.163Z,11.70
2022-11-08T05:01:24.298Z,11.33
2022-11-08T05:03:53.468Z,11.87
2022-11-08T05:06:30.242Z,11.83
2022-11-08T05:08:58.815Z,10.93
2022-11-08T05:11:28.546Z,11.63
2022-11-08T05:13:56.335Z,11.30
2022-11-08T05:16:32.214Z,11.77
2022-11-08T05:18:59.576Z,11.33
2022-11-08T05:21:46.140Z,11.47
2022-11-08T05:24:17.721Z,13.40
2022-11-08T05:26:48.188Z,12.10
2022-11-08T05:29:16.696Z,12.23
2022-11-08T05:31:43.916Z,11.73
2022-11-08T05:34:10.862Z,12.13
2022-11-08T05:36:37.866Z,11.80
2022-11-08T05:39:04.908Z,13.37
2022-11-08T05:41:31.906Z,12.80
2022-11-08T05:43:59.095Z,11.97
2022-11-08T05:46:26.033Z,11.83
2022-11-08T05:48:53.190Z,12.37
2022-11-08T05:51:21.153Z,12.10
2022-11-08T05:53:48.872Z,12.77
2022-11-08T05:56:16.407Z,12.30
2022-11-08T05:58:43.504Z,11.60
2022-11-08T06:01:15.604Z,12.40
2022-11-08T06:03:42.929Z,12.20
2022-11-08T06:06:17.056Z,12.33
2022-11-08T06:08:49.031Z,12.50
2022-11-08T06:11:21.789Z,12.57
2022-11-08T06:13:49.533Z,12.37
2022-11-08T06:16:18.876Z,12.03
2022-11-08T06:18:47.016Z,13.73
2022-11-08T06:21:18.235Z,12.87
2022-11-08T06:23:45.564Z,13.80
2022-11-08T06:26:12.826Z,12.27
2022-11-08T06:28:39.780Z,13.43
2022-11-08T06:31:06.693Z,11.93
2022-11-08T06:33:34.256Z,12.70
2022-11-08T06:36:02.177Z,12.13
2022-11-08T06:38:29.190Z,11.03
2022-11-08T06:41:00.371Z,13.20
2022-11-08T06:43:27.948Z,11.87
2022-11-08T06:45:55.217Z,12.23
2022-11-08T06:48:22.189Z,11.83
2022-11-08T06:50:49.097Z,11.90
2022-11-08T06:53:16.624Z,12.63
2022-11-08T06:55:43.757Z,11.67
2022-11-08T06:58:11.276Z,11.70
2022-11-08T07:00:38.658Z,11.90
2022-11-08T07:03:05.677Z,12.13
2022-11-08T07:05:34.840Z,12.20
2022-11-08T07:08:04.394Z,11.03
2022-11-08T07:10:34.027Z,11.70
2022-11-08T07:13:06.458Z,12.00
2022-11-08T07:15:35.549Z,12.03
2022-11-08T07:18:12.797Z,10.83
2022-11-08T07:20:40.897Z,12.10
2022-11-08T07:23:09.190Z,11.27
2022-11-08T07:25:36.809Z,11.70
2022-11-08T07:28:07.364Z,12.37
2022-11-08T07:30:35.764Z,12.13
2022-11-08T07:33:03.693Z,11.10
2022-11-08T07:35:30.670Z,11.03
2022-11-08T07:37:58.294Z,10.80
2022-11-08T07:40:25.502Z,11.63
2022-11-08T07:45:40.822Z,10.65
2022-11-08T07:48:12.573Z,9.80
2022-11-08T07:50:42.174Z,10.25
2022-11-08T07:53:10.224Z,9.05
2022-11-08T07:55:39.184Z,10.07
2022-11-08T07:58:06.941Z,10.10
2022-11-08T08:00:36.952Z,9.57
2022-11-08T08:03:07.151Z,10.52
2022-11-08T08:05:37.608Z,9.30
2022-11-08T08:08:05.410Z,9.38
2022-11-08T08:10:34.513Z,9.23
2022-11-08T08:13:01.934Z,9.65
2022-11-08T08:15:28.988Z,8.73
2022-11-08T08:17:56.073Z,8.75
2022-11-08T08:20:23.053Z,8.10
2022-11-08T08:22:52.531Z,8.52
2022-11-08T08:25:19.631Z,8.35
2022-11-08T08:27:51.486Z,8.30
2022-11-08T08:30:19.547Z,8.65
2022-11-08T08:32:53.466Z,8.68
2022-11-08T08:35:24.837Z,9.13
2022-11-08T08:37:51.760Z,8.30
2022-11-08T08:40:18.807Z,8.13
2022-11-08T08:42:45.803Z,8.45
2022-11-08T08:45:15.080Z,7.68
2022-11-08T08:47:42.275Z,7.22
2022-11-08T08:50:09.734Z,7.93
2022-11-08T08:52:36.706Z,7.05
2022-11-08T08:55:03.801Z,6.78
2022-11-08T08:57:30.757Z,7.75
2022-11-08T09:02:44.937Z,7.63
2022-11-08T09:05:13.498Z,6.55
2022-11-08T09:07:41.492Z,7.13
2022-11-08T09:10:10.436Z,7.00
2022-11-08T09:12:38.058Z,6.65
2022-11-08T09:15:06.881Z,7.60
2022-11-08T09:17:33.850Z,6.93
2022-11-08T09:20:00.987Z,6.45
2022-11-08T09:22:28.084Z,5.80
2022-11-08T09:24:55.042Z,6.00
2022-11-08T09:27:21.991Z,7.68
2022-11-08T09:29:48.942Z,6.35
2022-11-08T09:32:17.241Z,6.43
2022-11-08T09:34:48.672Z,6.47
2022-11-08T09:37:16.769Z,6.20
2022-11-08T09:39:43.862Z,5.70
2022-11-08T09:42:53.799Z,6.55
2022-11-08T09:45:46.543Z,5.80
2022-11-08T09:48:29.896Z,5.30
2022-11-08T09:50:59.123Z,6.05
2022-11-08T09:53:52.711Z,5.43
2022-11-08T09:56:24.069Z,5.82
2022-11-08T09:59:01.934Z,5.78
2022-11-08T10:01:35.480Z,6.00
2022-11-08T10:04:26.433Z,6.07
2022-11-08T10:07:32.224Z,6.93
2022-11-08T10:10:11.592Z,5.75
2022-11-08T10:13:22.705Z,5.43
2022-11-08T10:16:22.063Z,6.05
2022-11-08T10:19:05.425Z,5.88
2022-11-08T10:21:51.583Z,5.80
2022-11-08T10:24:47.843Z,5.38
2022-11-08T10:27:32.710Z,5.80
2022-11-08T10:30:13.521Z,5.47
2022-11-08T10:32:41.033Z,4.85
2022-11-08T10:35:21.898Z,5.53
2022-11-08T10:37:52.182Z,5.32
2022-11-08T10:40:44.238Z,5.20
2022-11-08T10:43:23.769Z,5.00
2022-11-08T10:45:50.900Z,5.50
2022-11-08T10:48:18.155Z,4.72
2022-11-08T10:50:50.567Z,4.72
2022-11-08T10:53:29.841Z,4.72
2022-11-08T10:56:03.545Z,4.25
2022-11-08T10:58:41.464Z,5.07
2022-11-08T11:01:21.895Z,4.72
2022-11-08T11:03:51.796Z,4.22
2022-11-08T11:06:32.954Z,3.67
2022-11-08T11:09:22.141Z,4.25
2022-11-08T11:12:07.691Z,5.15
2022-11-08T11:14:34.646Z,5.32
2022-11-08T11:17:07.596Z,3.80
2022-11-08T11:19:35.335Z,3.80
2022-11-08T11:22:08.029Z,4.22
2022-11-08T11:24:50.311Z,4.10
2022-11-08T11:27:32.395Z,4.07
2022-11-08T11:30:28.226Z,4.38
2022-11-08T11:33:24.942Z,4.50
2022-11-08T11:36:13.816Z,3.95
2022-11-08T11:39:13.742Z,4.25
2022-11-08T11:42:39.092Z,4.07
2022-11-08T11:45:32.953Z,4.03
2022-11-08T11:48:10.583Z,3.30
2022-11-08T11:50:46.070Z,4.05
2022-11-08T11:53:33.066Z,3.65
2022-11-08T11:56:28.478Z,3.65
2022-11-08T11:59:13.599Z,2.78
2022-11-08T12:01:58.555Z,3.05
2022-11-08T12:05:08.357Z,3.90
2022-11-08T12:07:44.905Z,2.50
2022-11-08T12:10:45.659Z,3.78
2022-11-08T12:13:27.400Z,3.10
2022-11-08T12:16:15.033Z,3.20
2022-11-08T12:19:13.446Z,3.58
2022-11-08T12:22:25.772Z,3.08
2022-11-08T12:25:18.618Z,3.38
2022-11-08T12:28:17.765Z,2.67
2022-11-08T12:31:02.677Z,2.83
2022-11-08T12:33:58.204Z,3.55
2022-11-08T12:37:03.713Z,3.55
2022-11-08T12:40:04.109Z,2.50
2022-11-08T12:43:13.267Z,3.40
2022-11-08T12:45:56.305Z,3.05
2022-11-08T12:49:00.500Z,3.08
2022-11-08T12:52:08.621Z,3.60
2022-11-08T12:54:46.152Z,3.55
2022-11-08T12:57:17.713Z,3.72
2022-11-08T13:00:17.338Z,3.40
2022-11-08T13:03:08.055Z,3.60
2022-11-08T13:06:22.965Z,3.40
2022-11-08T13:09:18.876Z,3.45
2022-11-08T13:12:12.858Z,3.45
2022-11-08T13:14:41.512Z,3.80
2022-11-08T13:17:27.345Z,3.75
2022-11-08T13:20:04.831Z,3.45
2022-11-08T13:22:32.411Z,3.92
2022-11-08T13:25:01.555Z,3.33
2022-11-08T13:27:37.275Z,3.45
2022-11-08T13:30:16.431Z,4.47
2022-11-08T13:32:43.308Z,3.80
2022-11-08T13:35:58.161Z,3.15
2022-11-08T13:38:47.336Z,3.53
2022-11-08T13:41:24.311Z,4.35
2022-11-08T13:43:55.146Z,3.75
2022-11-08T13:46:28.048Z,3.50
2022-11-08T13:49:06.298Z,4.03
2022-11-08T13:51:38.674Z,4.00
2022-11-08T13:54:23.646Z,4.40
2022-11-08T13:57:01.144Z,4.75
2022-11-08T13:59:31.151Z,3.95
2022-11-08T14:01:58.357Z,4.72
2022-11-08T14:04:33.733Z,4.15
2022-11-08T14:07:22.080Z,3.75
2022-11-08T14:10:06.207Z,3.95
2022-11-08T14:12:52.287Z,4.10
2022-11-08T14:15:46.584Z,4.53
2022-11-08T14:18:26.369Z,5.28
2022-11-08T14:20:57.751Z,4.45
2022-11-08T14:23:33.233Z,4.38
2022-11-08T14:26:10.919Z,4.43
2022-11-08T14:28:44.338Z,4.63
2022-11-08T14:31:34.497Z,5.07
2022-11-08T14:34:02.378Z,4.78
2022-11-08T14:36:31.751Z,4.88
2022-11-08T14:39:16.212Z,4.72
2022-11-08T14:41:51.789Z,4.70
2022-11-08T14:44:19.628Z,4.97
2022-11-08T14:46:48.040Z,5.10
2022-11-08T14:49:15.690Z,5.47
2022-11-08T14:51:43.616Z,5.13
2022-11-08T14:54:29.872Z,4.82
2022-11-08T14:56:56.765Z,4.65
2022-11-08T14:59:24.821Z,5.40
2022-11-08T15:01:52.207Z,6.15
2022-11-08T15:04:24.000Z,6.10
2022-11-08T15:06:56.669Z,6.00
2022-11-08T15:09:33.357Z,5.50
2022-11-08T15:12:07.265Z,5.82
2022-11-08T15:14:36.849Z,6.35
2022-11-08T15:17:04.202Z,5.60
2022-11-08T15:19:44.955Z,5.70
2022-11-08T15:22:30.560Z,7.57
2022-11-08T15:25:35.485Z,6.18
2022-11-08T15:28:21.558Z,5.88
2022-11-08T15:31:00.002Z,6.60
2022-11-08T15:33:45.362Z,6.35
2022-11-08T15:36:23.370Z,5.35
2022-11-08T15:38:50.531Z,6.60
2022-11-08T15:41:39.112Z,6.13
2022-11-08T15:44:24.790Z,6.18
2022-11-08T15:46:53.692Z,6.55
2022-11-08T15:49:26.660Z,6.03
2022-11-08T15:51:56.360Z,6.47
2022-11-08T15:54:26.438Z,6.70
2022-11-08T15:56:55.551Z,6.75
2022-11-08T15:59:29.986Z,6.13
2022-11-08T16:02:00.137Z,5.93
2022-11-08T16:04:29.196Z,6.60
2022-11-08T16:06:57.292Z,6.68
2022-11-08T16:09:24.306Z,6.72
2022-11-08T16:11:51.519Z,7.43
2022-11-08T16:14:23.421Z,7.30
2022-11-08T16:16:50.697Z,7.45
2022-11-08T16:19:24.919Z,7.05
2022-11-08T16:21:52.983Z,6.93
2022-11-08T16:24:19.970Z,7.00
2022-11-08T16:26:48.299Z,7.45
2022-11-08T16:29:22.841Z,7.47
2022-11-08T16:31:51.413Z,6.90
2022-11-08T16:34:19.243Z,7.47
2022-11-08T16:36:48.762Z,6.60
2022-11-08T16:39:23.297Z,7.05
2022-11-08T16:41:50.253Z,7.40
2022-11-08T16:44:18.408Z,8.02
2022-11-08T16:46:45.721Z,8.15
2022-11-08T16:49:21.835Z,7.95
2022-11-08T16:51:49.663Z,8.27
2022-11-08T16:54:24.952Z,7.95
2022-11-08T16:57:03.392Z,8.38
2022-11-08T16:59:39.182Z,8.77
2022-11-08T17:02:33.118Z,7.95
2022-11-08T17:05:00.354Z,8.18
2022-11-08T17:07:28.765Z,8.73
2022-11-08T17:09:55.752Z,9.23
2022-11-08T17:12:22.763Z,8.13
2022-11-08T17:14:49.680Z,9.63
2022-11-08T17:17:16.594Z,8.95
2022-11-08T17:19:43.601Z,9.65
2022-11-08T17:22:10.543Z,9.43
2022-11-08T17:24:37.492Z,9.77
2022-11-08T17:27:04.454Z,9.32
2022-11-08T17:29:31.599Z,9.65
2022-11-08T17:31:58.538Z,9.50
2022-11-08T17:34:25.492Z,9.05
2022-11-08T17:36:52.998Z,9.65
2022-11-08T17:39:19.984Z,9.38
2022-11-08T17:41:46.998Z,9.60
2022-11-08T17:44:14.696Z,9.80
2022-11-08T17:46:41.653Z,10.10
2022-11-08T17:49:09.283Z,9.77
2022-11-08T17:51:36.722Z,9.77
2022-11-08T17:54:03.918Z,10.40
2022-11-08T17:56:31.242Z,10.75
2022-11-08T17:58:58.216Z,9.57
2022-11-08T18:01:25.494Z,10.65
2022-11-08T18:03:52.553Z,9.98
2022-11-08T18:06:19.512Z,10.68
2022-11-08T18:08:46.517Z,11.93
2022-11-08T18:11:13.533Z,13.18
2022-11-08T18:13:40.612Z,13.02
2022-11-08T18:16:14.570Z,12.77
2022-11-08T18:18:42.607Z,13.68
2022-11-08T18:21:10.354Z,14.35
2022-11-08T18:23:41.325Z,13.13
2022-11-08T18:26:08.869Z,13.20
2022-11-08T18:28:38.148Z,13.48
2022-11-08T18:31:08.251Z,12.70
2022-11-08T18:33:36.255Z,14.60
2022-11-08T18:36:15.859Z,12.45
2022-11-08T18:38:45.795Z,13.35
2022-11-08T18:41:17.967Z,13.35
2022-11-08T18:43:45.404Z,14.15
2022-11-08T18:46:16.021Z,13.00
2022-11-08T18:48:43.841Z,14.23
2022-11-08T18:51:14.169Z,14.65
2022-11-08T18:53:41.574Z,14.68
2022-11-08T18:56:09.821Z,14.18
2022-11-08T18:58:36.813Z,13.77
2022-11-08T19:01:04.579Z,13.77
2022-11-08T19:03:33.290Z,13.95
2022-11-08T19:06:00.232Z,13.90
2022-11-08T19:08:30.289Z,14.20
2022-11-08T19:11:16.850Z,14.70
2022-11-08T19:13:43.768Z,14.68
2022-11-08T19:16:16.854Z,14.45
2022-11-08T19:18:45.136Z,15.93
2022-11-08T19:21:24.598Z,14.97
2022-11-08T19:23:56.125Z,15.77
2022-11-08T19:26:25.778Z,16.17
2022-11-08T19:28:56.882Z,15.90
2022-11-08T19:31:25.971Z,14.82
2022-11-08T19:33:54.307Z,16.42
2022-11-08T19:36:27.999Z,14.27
2022-11-08T19:38:56.586Z,15.03
2022-11-08T19:41:27.537Z,15.57
2022-11-08T19:43:57.965Z,15.90
2022-11-08T19:46:29.300Z,15.82
2022-11-08T19:48:58.610Z,15.93
2022-11-08T19:51:29.606Z,16.33
2022-11-08T19:54:06.659Z,16.15
2022-11-08T19:57:04.853Z,17.10
2022-11-08T19:59:23.752Z,16.73
2022-11-08T20:01:50.808Z,17.10
2022-11-08T20:04:18.672Z,16.65
2022-11-08T20:06:48.935Z,17.43
2022-11-08T20:09:16.035Z,17.73
2022-11-08T20:11:43.216Z,17.10
2022-11-08T20:14:13.299Z,16.53
2022-11-08T20:16:43.006Z,15.77
2022-11-08T20:19:14.962Z,18.40
2022-11-08T20:21:44.024Z,16.70
2022-11-08T20:24:11.930Z,15.73
2022-11-08T20:26:41.427Z,17.10
2022-11-08T20:29:08.667Z,16.60
2022-11-08T20:31:36.058Z,17.63
2022-11-08T20:34:06.026Z,16.67
2022-11-08T20:36:35.250Z,16.83
2022-11-08T20:39:07.328Z,16.10
2022-11-08T20:41:37.523Z,16.77
2022-11-08T20:44:06.843Z,16.90
2022-11-08T20:46:35.174Z,15.95
2022-11-08T20:49:03.573Z,17.13
2022-11-08T20:51:31.804Z,16.63
2022-11-08T20:54:00.528Z,16.00
2022-11-08T20:56:28.154Z,15.90
2022-11-08T20:58:55.279Z,16.07
2022-11-08T21:01:25.797Z,15.67
2022-11-08T21:03:52.891Z,15.10
2022-11-08T21:06:24.128Z,15.93
2022-11-08T21:09:03.263Z,16.30
2022-11-08T21:11:38.135Z,16.17
2022-11-08T21:14:05.545Z,15.17
2022-11-08T21:16:52.819Z,15.57
2022-11-08T21:19:20.712Z,15.13
2022-11-08T21:21:47.830Z,14.50
2022-11-08T21:24:14.819Z,16.63
2022-11-08T21:26:41.755Z,16.10
2022-11-08T21:29:08.707Z,16.63
2022-11-08T21:31:35.752Z,16.17
2022-11-08T21:34:02.809Z,16.23
2022-11-08T21:36:29.858Z,15.23
2022-11-08T21:38:56.971Z,15.90
2022-11-08T21:41:24.014Z,15.07
2022-11-08T21:43:51.090Z,15.20
2022-11-08T21:46:24.045Z,15.87
2022-11-08T21:49:00.811Z,16.43
2022-11-08T21:51:29.530Z,16.30
2022-11-08T21:53:58.958Z,14.67
2022-11-08T21:56:30.126Z,16.57
2022-11-08T21:58:57.560Z,16.50
2022-11-08T22:01:29.888Z,16.17
2022-11-08T22:03:59.325Z,15.90
2022-11-08T22:06:27.261Z,16.83
2022-11-08T22:08:54.580Z,16.20
2022-11-08T22:11:21.610Z,15.47
2022-11-08T22:13:48.644Z,16.83
2022-11-08T22:16:15.667Z,16.90
2022-11-08T22:21:39.318Z,17.37
2022-11-08T22:24:18.280Z,17.97
2022-11-08T22:26:45.911Z,16.93
2022-11-08T22:29:13.681Z,16.87
2022-11-08T22:31:40.758Z,17.07
2022-11-08T22:34:09.558Z,17.17
2022-11-08T22:36:44.439Z,16.63
2022-11-08T22:39:17.561Z,16.50
2022-11-08T22:41:45.906Z,16.57
2022-11-08T22:44:14.151Z,16.47
2022-11-08T22:46:42.938Z,16.80
2022-11-08T22:49:10.943Z,17.20
2022-11-08T22:51:39.368Z,16.60
2022-11-08T22:54:06.622Z,16.07
2022-11-08T22:56:33.991Z,16.30
2022-11-08T22:59:01.153Z,16.80
2022-11-08T23:01:28.163Z,17.10
2022-11-08T23:03:55.190Z,16.07
2022-11-08T23:06:22.230Z,15.97
2022-11-08T23:08:49.261Z,16.60
2022-11-08T23:11:35.181Z,17.27
2022-11-08T23:14:21.018Z,16.30
2022-11-08T23:16:48.101Z,16.57
2022-11-08T23:19:39.203Z,16.43
2022-11-08T23:22:29.689Z,15.70
2022-11-08T23:24:58.212Z,16.03
2022-11-08T23:27:44.596Z,16.53
2022-11-08T23:30:34.952Z,15.53
2022-11-08T23:33:03.350Z,15.50
2022-11-08T23:35:30.335Z,16.33
2022-11-08T23:37:57.298Z,15.37
2022-11-08T23:40:42.940Z,17.13
2022-11-08T23:43:35.632Z,15.43
2022-11-08T23:46:12.751Z,16.07
2022-11-08T23:48:40.817Z,15.70
2022-11-08T23:51:08.407Z,15.87
2022-11-08T23:53:39.990Z,16.10
2022-11-08T23:56:07.464Z,16.60
2022-11-08T23:58:34.452Z,17.27
